Time;durP1;ratioP1;P1;durP2;ratioP2;P2;SDS_P1;SDS_P2;PMS_P1;PMS_P2;Temp;Humidity;BMP_temperature;BMP_pressure;BME280_temperature;BME280_humidity;BME280_pressure;Samples;Min_cycle;Max_cycle;Signal;HPM_P1;HPM_P2
2023/05/13 00:00:44;;;;;;;5.90;2.40;;;;;;;;;;5049274;28;20222;-81
2023/05/13 00:03:11;;;;;;;2.13;2.00;;;;;;;;;;5049081;28;20703;-81
2023/05/13 00:05:39;;;;;;;3.90;2.33;;;;;;;;;;5049694;28;20214;-81
2023/05/13 00:08:06;;;;;;;4.30;2.73;;;;;;;;;;5049815;28;20237;-81
2023/05/13 00:10:32;;;;;;;2.80;2.60;;;;;;;;;;5042574;28;20696;-80
2023/05/13 00:12:59;;;;;;;6.77;2.60;;;;;;;;;;5043001;28;20683;-81
2023/05/13 00:15:28;;;;;;;2.50;2.30;;;;;;;;;;5049368;28;20210;-81
2023/05/13 00:17:55;;;;;;;2.93;2.03;;;;;;;;;;5048789;28;20205;-81
2023/05/13 00:20:22;;;;;;;2.90;2.70;;;;;;;;;;5049162;28;20225;-82
2023/05/13 00:22:48;;;;;;;3.10;2.80;;;;;;;;;;5049577;28;20206;-81
2023/05/13 00:25:15;;;;;;;2.63;2.43;;;;;;;;;;5041068;28;20248;-81
2023/05/13 00:27:42;;;;;;;2.23;2.13;;;;;;;;;;5043891;28;20201;-81
2023/05/13 00:30:09;;;;;;;3.17;2.50;;;;;;;;;;5049123;28;20206;-81
2023/05/13 00:32:37;;;;;;;3.33;2.30;;;;;;;;;;5048492;28;20205;-81
2023/05/13 00:35:05;;;;;;;4.80;2.43;;;;;;;;;;5049179;28;20206;-81
2023/05/13 00:37:32;;;;;;;2.93;2.40;;;;;;;;;;5049026;28;20274;-82
2023/05/13 00:39:58;;;;;;;2.50;2.30;;;;;;;;;;5048815;28;20206;-82
2023/05/13 00:42:25;;;;;;;3.20;2.40;;;;;;;;;;5048484;28;20225;-82
2023/05/13 00:44:52;;;;;;;2.63;2.43;;;;;;;;;;5049249;28;20205;-82
2023/05/13 00:47:19;;;;;;;2.50;2.30;;;;;;;;;;5049113;28;20238;-82
2023/05/13 00:49:47;;;;;;;2.47;2.27;;;;;;;;;;5049057;28;20210;-81
2023/05/13 00:52:14;;;;;;;2.77;2.47;;;;;;;;;;5048904;28;20275;-82
2023/05/13 00:54:41;;;;;;;5.50;2.37;;;;;;;;;;5048848;28;20198;-81
2023/05/13 00:57:07;;;;;;;2.63;2.03;;;;;;;;;;5048407;28;20630;-81
2023/05/13 00:59:34;;;;;;;2.80;2.20;;;;;;;;;;5048996;28;20202;-82
2023/05/13 01:02:07;;;;;;;2.37;2.17;;;;;;;;;;5048751;28;20717;-82
2023/05/13 01:04:40;;;;;;;2.83;2.40;;;;;;;;;;5049065;28;20206;-82
2023/05/13 01:07:13;;;;;;;2.80;2.60;;;;;;;;;;5042843;28;20207;-81
2023/05/13 01:09:52;;;;;;;3.40;2.37;;;;;;;;;;5041810;28;20198;-81
2023/05/13 01:12:21;;;;;;;2.47;2.13;;;;;;;;;;5048948;28;20262;-82
2023/05/13 01:14:52;;;;;;;2.40;2.20;;;;;;;;;;5048365;28;20198;-82
2023/05/13 01:17:22;;;;;;;3.37;2.80;;;;;;;;;;5048453;28;20205;-81
2023/05/13 01:19:52;;;;;;;4.37;2.63;;;;;;;;;;5048267;28;20216;-83
2023/05/13 01:22:20;;;;;;;2.77;2.40;;;;;;;;;;5048159;28;20226;-82
2023/05/13 01:24:49;;;;;;;2.03;1.93;;;;;;;;;;5048658;28;20254;-81
2023/05/13 01:27:16;;;;;;;4.63;2.90;;;;;;;;;;5047974;28;20209;-81
2023/05/13 01:29:43;;;;;;;2.93;2.70;;;;;;;;;;5044338;28;20589;-82
2023/05/13 01:32:10;;;;;;;3.13;2.63;;;;;;;;;;5028691;28;20614;-81
2023/05/13 01:34:39;;;;;;;3.90;2.37;;;;;;;;;;5046382;28;20609;-81
2023/05/13 01:37:06;;;;;;;2.03;1.93;;;;;;;;;;5047901;28;20209;-82
2023/05/13 01:39:36;;;;;;;2.57;2.37;;;;;;;;;;5048055;28;20270;-82
2023/05/13 01:42:03;;;;;;;3.03;2.40;;;;;;;;;;5036271;28;20283;-81
2023/05/13 01:44:30;;;;;;;2.73;2.30;;;;;;;;;;5047381;28;20229;-81
2023/05/13 01:46:56;;;;;;;2.53;2.33;;;;;;;;;;5047569;28;20228;-81
2023/05/13 01:49:24;;;;;;;2.93;2.23;;;;;;;;;;5047919;28;20251;-82
2023/05/13 01:51:51;;;;;;;2.47;2.33;;;;;;;;;;5047942;28;20208;-81
2023/05/13 01:54:18;;;;;;;2.20;2.10;;;;;;;;;;5034758;28;20728;-81
2023/05/13 01:56:46;;;;;;;4.23;2.27;;;;;;;;;;5047469;28;20208;-81
2023/05/13 01:59:13;;;;;;;5.00;2.97;;;;;;;;;;5015350;28;20626;-81
2023/05/13 02:01:40;;;;;;;3.23;2.20;;;;;;;;;;5028705;28;20230;-81
2023/05/13 02:04:07;;;;;;;3.53;2.63;;;;;;;;;;5040679;28;20213;-81
2023/05/13 02:06:33;;;;;;;2.60;2.40;;;;;;;;;;5041859;28;20635;-82
2023/05/13 02:09:00;;;;;;;2.90;2.57;;;;;;;;;;5047429;28;20258;-81
2023/05/13 02:11:27;;;;;;;3.57;3.27;;;;;;;;;;5047611;28;20212;-82
2023/05/13 02:13:55;;;;;;;5.87;2.53;;;;;;;;;;5040903;28;20677;-82
2023/05/13 02:16:22;;;;;;;2.77;2.57;;;;;;;;;;5041490;28;20206;-82
2023/05/13 02:18:49;;;;;;;3.37;2.73;;;;;;;;;;5050556;28;20209;-81
2023/05/13 02:21:15;;;;;;;3.13;2.50;;;;;;;;;;5051400;28;20606;-81
2023/05/13 02:23:42;;;;;;;3.80;2.40;;;;;;;;;;5051158;28;20667;-81
2023/05/13 02:26:09;;;;;;;3.00;2.70;;;;;;;;;;5050553;28;20625;-81
2023/05/13 02:28:36;;;;;;;4.60;3.00;;;;;;;;;;5051193;28;20209;-81
2023/05/13 02:31:05;;;;;;;4.57;3.07;;;;;;;;;;5050464;28;20206;-82
2023/05/13 02:33:32;;;;;;;5.80;3.00;;;;;;;;;;5050613;28;20212;-81
2023/05/13 02:35:58;;;;;;;2.70;2.50;;;;;;;;;;5051415;28;20259;-81
2023/05/13 02:38:25;;;;;;;3.60;2.70;;;;;;;;;;5051160;28;20699;-81
2023/05/13 02:40:52;;;;;;;3.67;2.83;;;;;;;;;;5050102;28;20684;-82
2023/05/13 02:43:19;;;;;;;5.40;2.50;;;;;;;;;;5050763;28;20225;-82
2023/05/13 02:45:46;;;;;;;3.60;2.80;;;;;;;;;;5050831;28;20280;-81
2023/05/13 02:48:14;;;;;;;4.87;3.03;;;;;;;;;;5050621;28;20242;-81
2023/05/13 02:50:41;;;;;;;3.23;2.93;;;;;;;;;;5050572;28;20198;-82
2023/05/13 02:53:08;;;;;;;2.63;2.40;;;;;;;;;;5050709;28;20708;-81
2023/05/13 02:55:35;;;;;;;2.73;2.53;;;;;;;;;;5038592;28;20207;-81
2023/05/13 02:58:02;;;;;;;2.90;2.23;;;;;;;;;;5039923;28;20206;-81
2023/05/13 03:00:28;;;;;;;3.10;2.83;;;;;;;;;;5050692;28;20202;-81
2023/05/13 03:02:56;;;;;;;4.13;2.83;;;;;;;;;;5049781;28;20225;-82
2023/05/13 03:05:24;;;;;;;6.60;3.00;;;;;;;;;;5043077;28;20199;-82
2023/05/13 03:07:51;;;;;;;3.27;2.63;;;;;;;;;;5045481;28;20205;-81
2023/05/13 03:10:18;;;;;;;2.67;2.47;;;;;;;;;;5049621;28;20705;-81
2023/05/13 03:12:46;;;;;;;2.60;2.40;;;;;;;;;;5049171;28;20262;-81
2023/05/13 03:15:13;;;;;;;4.63;3.00;;;;;;;;;;5032552;28;20621;-81
2023/05/13 03:17:40;;;;;;;3.30;2.87;;;;;;;;;;5049492;27;20202;-82
2023/05/13 03:20:08;;;;;;;3.57;2.77;;;;;;;;;;5050405;27;20266;-81
2023/05/13 03:22:37;;;;;;;5.03;2.87;;;;;;;;;;5049810;27;20225;-81
2023/05/13 03:25:05;;;;;;;3.47;3.17;;;;;;;;;;5049729;28;20703;-82
2023/05/13 03:27:32;;;;;;;4.03;2.70;;;;;;;;;;5049772;28;20628;-81
2023/05/13 03:29:58;;;;;;;3.90;2.90;;;;;;;;;;5049996;28;20724;-81
2023/05/13 03:32:29;;;;;;;3.33;3.00;;;;;;;;;;5049062;28;20333;-82
2023/05/13 03:34:56;;;;;;;4.67;2.97;;;;;;;;;;5049923;28;20205;-81
2023/05/13 03:37:23;;;;;;;2.73;2.53;;;;;;;;;;5049566;28;20205;-81
2023/05/13 03:39:51;;;;;;;4.97;3.10;;;;;;;;;;5039601;28;20684;-81
2023/05/13 03:42:18;;;;;;;4.23;2.97;;;;;;;;;;5047460;28;20222;-80
2023/05/13 03:44:44;;;;;;;3.20;2.90;;;;;;;;;;5039681;28;20206;-83
2023/05/13 03:47:11;;;;;;;6.40;4.90;;;;;;;;;;5049520;28;20222;-82
2023/05/13 03:49:38;;;;;;;5.70;4.57;;;;;;;;;;5049856;28;20663;-83
2023/05/13 03:52:06;;;;;;;8.83;4.63;;;;;;;;;;5047078;28;20672;-83
2023/05/13 03:54:33;;;;;;;4.97;4.47;;;;;;;;;;5030223;28;20241;-83
2023/05/13 03:57:02;;;;;;;7.53;4.63;;;;;;;;;;5045056;28;20206;-84
2023/05/13 03:59:29;;;;;;;5.67;4.87;;;;;;;;;;5040601;28;20210;-84
2023/05/13 04:01:55;;;;;;;4.63;3.80;;;;;;;;;;5030189;28;20219;-82
2023/05/13 04:04:22;;;;;;;4.77;3.47;;;;;;;;;;5049340;28;20194;-80
2023/05/13 04:06:49;;;;;;;4.67;4.30;;;;;;;;;;5048947;28;20209;-82
2023/05/13 04:09:15;;;;;;;3.60;2.90;;;;;;;;;;5049053;28;20209;-83
2023/05/13 04:11:42;;;;;;;2.57;2.37;;;;;;;;;;5046024;28;20210;-82
2023/05/13 04:14:10;;;;;;;3.60;3.30;;;;;;;;;;5038947;28;20278;-85
2023/05/13 04:16:37;;;;;;;4.20;3.57;;;;;;;;;;5045861;28;20195;-83
2023/05/13 04:19:04;;;;;;;2.83;2.43;;;;;;;;;;5039316;28;20213;-81
2023/05/13 04:21:31;;;;;;;4.30;3.50;;;;;;;;;;5031071;28;20207;-83
2023/05/13 04:23:58;;;;;;;4.23;3.50;;;;;;;;;;5040317;28;20622;-83
2023/05/13 04:26:25;;;;;;;4.23;3.50;;;;;;;;;;5036112;27;20205;-82
2023/05/13 04:28:51;;;;;;;3.73;3.40;;;;;;;;;;5048978;28;20630;-83
2023/05/13 04:31:20;;;;;;;6.07;3.47;;;;;;;;;;5048890;28;20201;-82
2023/05/13 04:33:46;;;;;;;3.40;3.13;;;;;;;;;;5048380;28;20258;-83
2023/05/13 04:36:13;;;;;;;4.43;3.67;;;;;;;;;;5030853;28;20202;-82
2023/05/13 04:38:40;;;;;;;9.63;7.77;;;;;;;;;;5040745;28;20206;-83
2023/05/13 04:41:07;;;;;;;7.73;6.50;;;;;;;;;;5047346;28;20582;-83
2023/05/13 04:43:33;;;;;;;6.73;6.03;;;;;;;;;;5040677;28;20226;-81
2023/05/13 04:46:00;;;;;;;5.33;4.83;;;;;;;;;;5047661;28;20278;-81
2023/05/13 04:48:28;;;;;;;6.40;4.63;;;;;;;;;;5037165;28;20211;-85
2023/05/13 04:50:55;;;;;;;5.93;4.40;;;;;;;;;;5034602;28;20263;-85
2023/05/13 04:53:22;;;;;;;7.43;5.37;;;;;;;;;;5031449;27;20565;-85
2023/05/13 04:55:49;;;;;;;8.50;5.80;;;;;;;;;;5023472;28;20199;-85
2023/05/13 04:58:16;;;;;;;9.13;4.80;;;;;;;;;;5034407;28;20202;-84
2023/05/13 05:00:43;;;;;;;5.80;5.30;;;;;;;;;;5042064;27;20282;-85
2023/05/13 05:03:10;;;;;;;10.43;5.67;;;;;;;;;;5034516;28;20648;-85
2023/05/13 05:05:39;;;;;;;6.23;5.63;;;;;;;;;;5030922;28;20198;-85
2023/05/13 05:08:05;;;;;;;9.10;5.60;;;;;;;;;;5023210;28;20202;-85
2023/05/13 05:10:32;;;;;;;6.63;5.93;;;;;;;;;;5034368;28;20214;-85
2023/05/13 05:12:59;;;;;;;8.37;6.10;;;;;;;;;;5028149;28;20195;-85
2023/05/13 05:15:26;;;;;;;7.50;6.73;;;;;;;;;;5042096;28;20739;-85
2023/05/13 05:17:53;;;;;;;10.20;6.43;;;;;;;;;;5049203;28;20594;-85
2023/05/13 05:20:23;;;;;;;7.50;5.30;;;;;;;;;;5035320;27;20221;-84
2023/05/13 05:22:51;;;;;;;9.23;4.77;;;;;;;;;;5048534;28;20226;-84
2023/05/13 05:25:18;;;;;;;11.10;4.87;;;;;;;;;;5031718;28;20206;-84
2023/05/13 05:27:47;;;;;;;6.37;4.17;;;;;;;;;;5024575;28;20236;-86
2023/05/13 05:30:15;;;;;;;4.43;4.07;;;;;;;;;;5005411;28;20216;-85
2023/05/13 05:32:42;;;;;;;3.83;3.53;;;;;;;;;;5033653;28;20698;-85
2023/05/13 05:35:09;;;;;;;6.30;3.70;;;;;;;;;;5027950;28;20207;-84
2023/05/13 05:37:36;;;;;;;5.63;3.30;;;;;;;;;;5033895;27;20217;-85
2023/05/13 05:40:07;;;;;;;31.90;17.17;;;;;;;;;;5036738;28;20206;-84
2023/05/13 05:42:34;;;;;;;100.57;55.50;;;;;;;;;;5031228;28;20232;-85
2023/05/13 05:45:01;;;;;;;23.53;16.53;;;;;;;;;;5036928;28;20645;-84
2023/05/13 05:47:28;;;;;;;6.10;3.83;;;;;;;;;;5031440;28;20230;-85
2023/05/13 05:49:58;;;;;;;23.60;17.37;;;;;;;;;;5005423;28;20210;-85
2023/05/13 05:52:25;;;;;;;5.73;5.23;;;;;;;;;;5046862;28;20224;-85
2023/05/13 05:54:52;;;;;;;4.13;3.20;;;;;;;;;;5047956;28;20206;-84
2023/05/13 05:57:20;;;;;;;6.37;3.67;;;;;;;;;;5028608;27;20212;-87
2023/05/13 05:59:47;;;;;;;14.63;3.53;;;;;;;;;;5017911;28;20645;-87
2023/05/13 06:02:14;;;;;;;3.90;2.87;;;;;;;;;;5029791;28;20284;-85
2023/05/13 06:04:41;;;;;;;2.73;2.47;;;;;;;;;;5027699;28;20267;-84
2023/05/13 06:07:08;;;;;;;2.57;2.37;;;;;;;;;;5039747;28;20643;-84
2023/05/13 06:09:35;;;;;;;3.33;1.80;;;;;;;;;;5046178;28;20206;-84
2023/05/13 06:12:02;;;;;;;2.23;2.03;;;;;;;;;;5046886;28;20213;-85
2023/05/13 06:14:31;;;;;;;3.57;2.40;;;;;;;;;;5020572;28;20699;-85
2023/05/13 06:16:58;;;;;;;4.80;2.90;;;;;;;;;;5031516;27;20198;-85
2023/05/13 06:19:25;;;;;;;3.10;2.67;;;;;;;;;;5028478;28;20210;-85
2023/05/13 06:21:53;;;;;;;1.73;1.60;;;;;;;;;;5025561;28;20203;-85
2023/05/13 06:24:20;;;;;;;6.67;2.80;;;;;;;;;;5027882;28;20229;-84
2023/05/13 06:26:47;;;;;;;3.50;3.20;;;;;;;;;;5025669;28;20201;-84
2023/05/13 06:29:15;;;;;;;2.33;1.93;;;;;;;;;;5033187;28;20766;-84
2023/05/13 06:31:43;;;;;;;5.83;3.17;;;;;;;;;;5024986;28;20263;-84
2023/05/13 06:34:15;;;;;;;4.43;2.63;;;;;;;;;;5010844;28;20685;-84
2023/05/13 06:36:42;;;;;;;4.47;2.23;;;;;;;;;;5027568;28;20206;-84
2023/05/13 06:39:09;;;;;;;3.70;3.40;;;;;;;;;;5036166;28;20206;-84
2023/05/13 06:41:36;;;;;;;2.17;1.97;;;;;;;;;;5021084;28;20286;-85
2023/05/13 06:44:03;;;;;;;2.70;2.50;;;;;;;;;;5019500;28;20230;-85
2023/05/13 06:46:30;;;;;;;3.80;3.40;;;;;;;;;;5013934;28;20292;-81
2023/05/13 06:48:59;;;;;;;4.57;2.97;;;;;;;;;;5030793;28;20260;-83
2023/05/13 06:51:27;;;;;;;2.43;2.23;;;;;;;;;;5035675;28;20202;-80
2023/05/13 06:53:54;;;;;;;2.93;2.10;;;;;;;;;;5047076;28;20203;-81
2023/05/13 06:56:21;;;;;;;1.53;1.43;;;;;;;;;;5046519;28;20210;-82
2023/05/13 06:58:48;;;;;;;1.97;1.87;;;;;;;;;;5041252;28;20231;-80
2023/05/13 07:01:15;;;;;;;2.63;2.30;;;;;;;;;;5039868;28;20205;-81
2023/05/13 07:03:42;;;;;;;3.00;2.23;;;;;;;;;;5047722;28;20225;-81
2023/05/13 07:06:10;;;;;;;3.10;2.80;;;;;;;;;;5050383;28;20198;-81
2023/05/13 07:08:37;;;;;;;3.67;2.37;;;;;;;;;;5024538;28;20205;-81
2023/05/13 07:11:04;;;;;;;1.67;1.57;;;;;;;;;;5050262;28;20206;-82
2023/05/13 07:13:33;;;;;;;2.90;2.70;;;;;;;;;;5050495;28;20210;-81
2023/05/13 07:16:01;;;;;;;2.10;1.90;;;;;;;;;;5048621;28;20205;-82
2023/05/13 07:18:27;;;;;;;2.63;1.80;;;;;;;;;;5039922;28;20212;-84
2023/05/13 07:20:55;;;;;;;1.77;1.60;;;;;;;;;;5030687;28;20208;-81
2023/05/13 07:23:23;;;;;;;1.80;1.70;;;;;;;;;;5030277;28;20594;-81
2023/05/13 07:25:51;;;;;;;2.63;2.43;;;;;;;;;;5030112;28;20209;-81
2023/05/13 07:28:18;;;;;;;12.50;9.27;;;;;;;;;;5029668;28;20211;-82
2023/05/13 07:30:45;;;;;;;6.37;4.57;;;;;;;;;;5022654;28;20199;-81
2023/05/13 07:33:11;;;;;;;2.10;1.90;;;;;;;;;;5030497;28;20210;-81
2023/05/13 07:35:38;;;;;;;3.03;2.73;;;;;;;;;;5030372;28;20214;-81
2023/05/13 07:38:06;;;;;;;2.97;2.20;;;;;;;;;;5030503;28;20255;-81
2023/05/13 07:40:34;;;;;;;2.37;2.17;;;;;;;;;;5019144;28;20672;-81
2023/05/13 07:43:03;;;;;;;2.63;2.43;;;;;;;;;;5030060;28;20226;-81
2023/05/13 07:45:30;;;;;;;2.13;1.93;;;;;;;;;;5030082;28;20246;-81
2023/05/13 07:47:57;;;;;;;1.67;1.57;;;;;;;;;;5029922;28;20701;-80
2023/05/13 07:50:23;;;;;;;2.13;1.93;;;;;;;;;;5029435;28;20203;-82
2023/05/13 07:52:51;;;;;;;3.67;2.17;;;;;;;;;;5025260;28;20206;-81
2023/05/13 07:55:18;;;;;;;2.67;2.47;;;;;;;;;;5029295;28;20207;-81
2023/05/13 07:57:46;;;;;;;2.73;2.47;;;;;;;;;;5029703;28;20206;-81
2023/05/13 08:00:14;;;;;;;2.30;2.10;;;;;;;;;;5030389;28;20210;-82
2023/05/13 08:02:42;;;;;;;4.53;3.40;;;;;;;;;;5022984;28;20199;-81
2023/05/13 08:05:09;;;;;;;2.20;2.00;;;;;;;;;;5024408;28;20191;-81
2023/05/13 08:07:36;;;;;;;5.07;2.93;;;;;;;;;;5036318;28;20688;-81
2023/05/13 08:10:03;;;;;;;2.70;2.50;;;;;;;;;;5049588;28;20202;-81
2023/05/13 08:12:30;;;;;;;2.30;2.10;;;;;;;;;;5050011;28;20206;-81
2023/05/13 08:14:58;;;;;;;2.90;2.00;;;;;;;;;;5048407;28;20198;-82
2023/05/13 08:17:25;;;;;;;3.07;1.63;;;;;;;;;;5049288;28;20211;-81
2023/05/13 08:19:52;;;;;;;5.47;1.83;;;;;;;;;;5029097;28;20199;-81
2023/05/13 08:22:19;;;;;;;1.73;1.63;;;;;;;;;;5022749;28;20646;-82
2023/05/13 08:24:46;;;;;;;2.07;1.97;;;;;;;;;;5044377;28;20230;-81
2023/05/13 08:27:12;;;;;;;1.83;1.70;;;;;;;;;;5040926;28;20214;-81
2023/05/13 08:29:41;;;;;;;2.13;1.87;;;;;;;;;;5043836;28;20205;-81
2023/05/13 08:32:09;;;;;;;2.23;2.03;;;;;;;;;;5049622;28;20565;-81
2023/05/13 08:34:36;;;;;;;2.20;1.70;;;;;;;;;;5032120;28;20209;-81
2023/05/13 08:37:03;;;;;;;1.80;1.70;;;;;;;;;;5043654;28;20568;-80
2023/05/13 08:39:29;;;;;;;1.80;1.70;;;;;;;;;;5049331;28;20207;-81
2023/05/13 08:41:57;;;;;;;1.97;1.80;;;;;;;;;;5049020;28;20202;-82
2023/05/13 08:44:28;;;;;;;4.30;1.80;;;;;;;;;;5049228;28;20234;-78
2023/05/13 08:47:02;;;;;;;1.50;1.40;;;;;;;;;;5048917;28;20304;-81
2023/05/13 08:49:30;;;;;;;1.70;1.60;;;;;;;;;;5048476;28;20543;-79
2023/05/13 08:51:57;;;;;;;1.87;1.67;;;;;;;;;;5048166;28;20295;-82
2023/05/13 08:54:24;;;;;;;1.77;1.67;;;;;;;;;;5023536;28;20198;-81
2023/05/13 08:56:51;;;;;;;1.60;1.50;;;;;;;;;;5048034;28;20641;-81
2023/05/13 08:59:18;;;;;;;2.03;1.83;;;;;;;;;;5049109;28;20201;-81
2023/05/13 09:01:45;;;;;;;2.20;2.10;;;;;;;;;;5048905;28;20694;-81
2023/05/13 09:04:11;;;;;;;1.40;1.30;;;;;;;;;;5049265;28;20279;-80
2023/05/13 09:06:40;;;;;;;3.03;1.70;;;;;;;;;;5038750;28;20203;-80
2023/05/13 09:09:09;;;;;;;1.90;1.80;;;;;;;;;;5049366;28;20199;-80
2023/05/13 09:11:38;;;;;;;1.53;1.43;;;;;;;;;;5048334;28;20209;-80
2023/05/13 09:14:07;;;;;;;2.67;1.60;;;;;;;;;;5039679;28;20209;-79
2023/05/13 09:16:35;;;;;;;2.07;1.60;;;;;;;;;;5044751;28;21684;-80
2023/05/13 09:19:04;;;;;;;2.10;1.90;;;;;;;;;;5048346;28;20248;-79
2023/05/13 09:21:31;;;;;;;1.80;1.70;;;;;;;;;;5033971;28;20208;-80
2023/05/13 09:24:10;;;;;;;3.30;1.97;;;;;;;;;;5048222;28;20227;-81
2023/05/13 09:26:38;;;;;;;1.77;1.50;;;;;;;;;;5048005;28;20223;-80
2023/05/13 09:29:23;;;;;;;1.97;1.80;;;;;;;;;;5035760;28;20205;-80
2023/05/13 09:31:51;;;;;;;1.57;1.47;;;;;;;;;;5025138;28;20755;-80
2023/05/13 09:34:26;;;;;;;1.50;1.40;;;;;;;;;;5047896;28;20212;-82
2023/05/13 09:37:01;;;;;;;1.40;1.30;;;;;;;;;;5048347;28;20212;-79
2023/05/13 09:39:29;;;;;;;1.30;1.20;;;;;;;;;;5047790;28;20707;-82
2023/05/13 09:41:56;;;;;;;1.63;1.53;;;;;;;;;;5036532;28;20215;-79
2023/05/13 09:44:23;;;;;;;1.47;1.37;;;;;;;;;;5046087;28;20732;-79
2023/05/13 09:46:51;;;;;;;1.33;1.23;;;;;;;;;;5047435;28;20738;-80
2023/05/13 09:49:18;;;;;;;2.07;1.70;;;;;;;;;;5047248;28;20210;-79
2023/05/13 09:51:45;;;;;;;2.33;1.67;;;;;;;;;;5048047;28;20204;-80
2023/05/13 09:54:11;;;;;;;1.83;1.47;;;;;;;;;;5048105;28;20292;-79
2023/05/13 09:56:39;;;;;;;1.40;1.30;;;;;;;;;;5047840;28;20257;-79
2023/05/13 09:59:06;;;;;;;1.50;1.40;;;;;;;;;;5047620;28;20201;-79
2023/05/13 10:01:35;;;;;;;3.03;1.70;;;;;;;;;;5047764;28;20624;-79
2023/05/13 10:04:04;;;;;;;1.60;1.50;;;;;;;;;;5041208;28;20225;-79
2023/05/13 10:06:32;;;;;;;4.07;2.03;;;;;;;;;;5039348;28;20210;-81
2023/05/13 10:09:01;;;;;;;3.07;1.67;;;;;;;;;;5027302;28;20217;-79
2023/05/13 10:11:30;;;;;;;1.60;1.50;;;;;;;;;;5027299;28;20205;-82
2023/05/13 10:14:01;;;;;;;1.57;1.43;;;;;;;;;;5041712;28;20251;-79
2023/05/13 10:16:29;;;;;;;4.37;2.10;;;;;;;;;;5040261;28;20205;-79
2023/05/13 10:18:57;;;;;;;2.37;2.17;;;;;;;;;;5023013;28;20296;-82
2023/05/13 10:21:24;;;;;;;2.80;2.60;;;;;;;;;;5018591;28;20209;-79
2023/05/13 10:23:51;;;;;;;2.87;2.10;;;;;;;;;;5014829;28;20419;-79
2023/05/13 10:26:19;;;;;;;3.50;1.63;;;;;;;;;;5024598;28;20235;-79
2023/05/13 10:28:46;;;;;;;5.17;2.07;;;;;;;;;;5018046;28;20194;-79
2023/05/13 10:31:14;;;;;;;2.53;1.90;;;;;;;;;;5025454;28;20203;-80
2023/05/13 10:33:41;;;;;;;2.40;2.20;;;;;;;;;;5025422;28;20203;-79
2023/05/13 10:36:18;;;;;;;4.27;3.67;;;;;;;;;;5019431;28;20273;-80
2023/05/13 10:38:57;;;;;;;3.30;3.10;;;;;;;;;;5020536;28;20211;-79
2023/05/13 10:41:45;;;;;;;6.70;4.27;;;;;;;;;;5020844;28;20203;-80
2023/05/13 10:44:12;;;;;;;4.47;4.10;;;;;;;;;;5032278;28;20222;-79
2023/05/13 10:46:42;;;;;;;2.97;2.73;;;;;;;;;;5050341;28;20222;-80
2023/05/13 10:49:14;;;;;;;5.50;4.07;;;;;;;;;;5029612;28;20211;-79
2023/05/13 10:51:45;;;;;;;2.33;2.10;;;;;;;;;;5023173;28;20263;-80
2023/05/13 10:54:18;;;;;;;1.80;1.70;;;;;;;;;;5019889;28;20210;-79
2023/05/13 10:56:45;;;;;;;2.77;2.50;;;;;;;;;;5020877;28;20639;-79
2023/05/13 10:59:12;;;;;;;1.53;1.43;;;;;;;;;;5027996;28;20255;-79
2023/05/13 11:01:42;;;;;;;2.40;2.30;;;;;;;;;;5027182;28;20673;-79
2023/05/13 11:04:13;;;;;;;3.20;2.40;;;;;;;;;;5028882;28;20315;-80
2023/05/13 11:06:41;;;;;;;3.47;2.10;;;;;;;;;;5019046;28;20204;-79
2023/05/13 11:09:09;;;;;;;3.10;2.40;;;;;;;;;;5050222;28;20626;-79
2023/05/13 11:11:36;;;;;;;2.50;2.30;;;;;;;;;;5050209;28;20212;-79
2023/05/13 11:14:09;;;;;;;2.63;2.43;;;;;;;;;;5041324;28;20704;-79
2023/05/13 11:16:36;;;;;;;2.87;2.40;;;;;;;;;;5045819;28;20206;-80
2023/05/13 11:19:09;;;;;;;2.53;1.57;;;;;;;;;;5050158;27;20206;-79
2023/05/13 11:21:38;;;;;;;1.67;1.57;;;;;;;;;;5049985;28;20194;-79
2023/05/13 11:24:08;;;;;;;2.30;1.70;;;;;;;;;;5050202;28;20233;-79
2023/05/13 11:26:48;;;;;;;2.23;2.03;;;;;;;;;;5049935;28;20209;-79
2023/05/13 11:29:15;;;;;;;3.70;2.20;;;;;;;;;;5049535;28;20206;-80
2023/05/13 11:31:47;;;;;;;2.20;2.10;;;;;;;;;;5023995;28;20206;-79
2023/05/13 11:34:16;;;;;;;4.77;3.40;;;;;;;;;;5035439;28;20203;-79
2023/05/13 11:36:46;;;;;;;4.90;2.90;;;;;;;;;;5049605;28;20205;-79
2023/05/13 11:39:14;;;;;;;4.47;3.00;;;;;;;;;;5049749;28;20251;-79
2023/05/13 11:41:43;;;;;;;1.80;1.70;;;;;;;;;;5049662;28;20210;-79
2023/05/13 11:44:12;;;;;;;1.90;1.80;;;;;;;;;;5048746;28;20764;-79
2023/05/13 11:46:39;;;;;;;1.67;1.40;;;;;;;;;;5049432;28;20296;-79
2023/05/13 11:49:06;;;;;;;1.50;1.40;;;;;;;;;;5049534;28;20198;-79
2023/05/13 11:51:37;;;;;;;3.47;1.43;;;;;;;;;;5048028;28;20648;-79
2023/05/13 11:54:06;;;;;;;3.13;2.93;;;;;;;;;;5047827;28;20717;-79
2023/05/13 11:56:32;;;;;;;2.60;1.73;;;;;;;;;;5049328;28;20289;-80
2023/05/13 11:59:15;;;;;;;2.07;1.77;;;;;;;;;;5044684;28;20194;-79
2023/05/13 12:01:41;;;;;;;5.03;1.60;;;;;;;;;;5043231;28;20257;-79
2023/05/13 12:04:09;;;;;;;10.03;1.80;;;;;;;;;;5049336;28;20255;-79
2023/05/13 12:06:43;;;;;;;13.17;7.63;;;;;;;;;;5039033;28;20211;-79
2023/05/13 12:09:11;;;;;;;4.60;2.27;;;;;;;;;;5045156;28;20234;-78
2023/05/13 12:11:39;;;;;;;1.70;1.60;;;;;;;;;;5040724;28;20207;-78
2023/05/13 12:14:06;;;;;;;4.37;1.87;;;;;;;;;;5030064;27;20221;-78
2023/05/13 12:16:33;;;;;;;1.87;1.77;;;;;;;;;;5029465;28;20274;-79
2023/05/13 12:19:00;;;;;;;2.30;2.10;;;;;;;;;;5029590;28;20206;-78
2023/05/13 12:21:31;;;;;;;1.63;1.50;;;;;;;;;;5029400;28;20211;-78
2023/05/13 12:23:59;;;;;;;1.70;1.60;;;;;;;;;;5028806;28;20211;-78
2023/05/13 12:26:26;;;;;;;2.07;1.87;;;;;;;;;;5029459;28;20586;-78
2023/05/13 12:28:57;;;;;;;1.87;1.70;;;;;;;;;;5028929;28;20696;-78
2023/05/13 12:31:24;;;;;;;3.30;3.00;;;;;;;;;;5029414;28;20195;-78
2023/05/13 12:33:52;;;;;;;3.13;1.87;;;;;;;;;;5029027;28;20207;-78
2023/05/13 12:36:20;;;;;;;2.07;1.87;;;;;;;;;;5029178;28;20311;-78
2023/05/13 12:38:59;;;;;;;3.50;1.70;;;;;;;;;;5029099;28;20707;-78
2023/05/13 12:41:27;;;;;;;2.77;1.70;;;;;;;;;;5028537;28;20211;-78
2023/05/13 12:43:58;;;;;;;3.70;2.20;;;;;;;;;;5016021;28;20203;-78
2023/05/13 12:46:25;;;;;;;2.00;1.40;;;;;;;;;;5028823;28;20238;-78
2023/05/13 12:48:56;;;;;;;2.67;1.77;;;;;;;;;;5028813;28;20298;-78
2023/05/13 12:51:23;;;;;;;1.70;1.60;;;;;;;;;;5029157;28;20233;-78
2023/05/13 12:53:52;;;;;;;1.70;1.60;;;;;;;;;;5028192;28;21093;-78
2023/05/13 12:56:22;;;;;;;3.83;1.80;;;;;;;;;;5028796;28;20240;-78
2023/05/13 12:58:50;;;;;;;1.60;1.50;;;;;;;;;;5028993;28;20199;-78
2023/05/13 13:01:17;;;;;;;4.00;3.10;;;;;;;;;;5028121;28;20753;-78
2023/05/13 13:03:43;;;;;;;1.70;1.60;;;;;;;;;;5028996;28;20263;-78
2023/05/13 13:06:10;;;;;;;3.87;1.43;;;;;;;;;;5028042;28;20222;-78
2023/05/13 13:08:37;;;;;;;1.70;1.60;;;;;;;;;;5028507;28;20597;-78
2023/05/13 13:11:05;;;;;;;2.37;2.03;;;;;;;;;;5028347;28;20590;-78
2023/05/13 13:13:33;;;;;;;2.00;1.80;;;;;;;;;;5028325;28;20221;-80
2023/05/13 13:16:00;;;;;;;2.47;1.97;;;;;;;;;;5034924;28;20202;-78
2023/05/13 13:18:27;;;;;;;3.63;2.40;;;;;;;;;;5042293;28;20808;-78
2023/05/13 13:20:55;;;;;;;2.03;1.87;;;;;;;;;;5039337;28;20198;-77
2023/05/13 13:23:21;;;;;;;10.73;1.93;;;;;;;;;;5027130;28;20211;-78
2023/05/13 13:25:48;;;;;;;3.13;2.03;;;;;;;;;;5035079;28;20236;-78
2023/05/13 13:28:15;;;;;;;1.77;1.67;;;;;;;;;;5048063;28;20201;-78
2023/05/13 13:30:48;;;;;;;6.77;2.50;;;;;;;;;;5048035;28;20221;-78
2023/05/13 13:33:15;;;;;;;2.60;2.40;;;;;;;;;;5048105;28;20209;-79
2023/05/13 13:35:43;;;;;;;3.07;1.47;;;;;;;;;;5021843;28;20203;-78
2023/05/13 13:38:10;;;;;;;1.73;1.60;;;;;;;;;;5048364;28;20217;-79
2023/05/13 13:40:36;;;;;;;1.83;1.70;;;;;;;;;;5047509;28;20628;-79
2023/05/13 13:43:03;;;;;;;5.83;2.10;;;;;;;;;;5040132;28;20202;-79
2023/05/13 13:45:30;;;;;;;2.20;2.00;;;;;;;;;;5045259;28;20648;-78
2023/05/13 13:47:58;;;;;;;1.10;1.10;;;;;;;;;;5040378;28;20202;-78
2023/05/13 13:50:25;;;;;;;1.77;1.67;;;;;;;;;;5042457;28;20198;-78
2023/05/13 13:52:53;;;;;;;1.60;1.50;;;;;;;;;;5048273;28;20224;-78
2023/05/13 13:55:19;;;;;;;1.83;1.73;;;;;;;;;;5047547;28;20202;-78
2023/05/13 13:57:46;;;;;;;1.80;1.70;;;;;;;;;;5047960;28;20220;-78
2023/05/13 14:00:14;;;;;;;2.17;1.70;;;;;;;;;;5046931;28;20202;-78
2023/05/13 14:02:41;;;;;;;2.40;1.83;;;;;;;;;;5044446;28;20202;-78
2023/05/13 14:05:10;;;;;;;23.67;3.20;;;;;;;;;;5047054;28;20277;-79
2023/05/13 14:07:38;;;;;;;3.17;1.97;;;;;;;;;;5047606;28;20201;-78
2023/05/13 14:10:06;;;;;;;2.03;1.80;;;;;;;;;;5047345;28;20198;-78
2023/05/13 14:12:34;;;;;;;2.50;1.63;;;;;;;;;;5047231;28;20729;-78
2023/05/13 14:15:01;;;;;;;2.03;1.60;;;;;;;;;;5046673;28;20685;-79
2023/05/13 14:17:28;;;;;;;2.60;1.73;;;;;;;;;;5047121;28;20206;-78
2023/05/13 14:19:54;;;;;;;2.73;2.53;;;;;;;;;;5047216;28;20202;-78
2023/05/13 14:22:23;;;;;;;4.93;1.80;;;;;;;;;;5036564;28;20760;-78
2023/05/13 14:24:51;;;;;;;1.93;1.83;;;;;;;;;;5045625;28;20210;-78
2023/05/13 14:27:19;;;;;;;3.87;1.60;;;;;;;;;;5047638;28;20202;-78
2023/05/13 14:29:46;;;;;;;3.20;1.50;;;;;;;;;;5047402;28;20638;-78
2023/05/13 14:32:12;;;;;;;2.57;1.60;;;;;;;;;;5047498;28;20202;-78
2023/05/13 14:34:41;;;;;;;3.60;3.00;;;;;;;;;;5046885;28;20680;-78
2023/05/13 14:37:08;;;;;;;3.90;2.20;;;;;;;;;;5047318;28;20213;-78
2023/05/13 14:39:36;;;;;;;5.10;4.00;;;;;;;;;;5047218;28;20213;-79
2023/05/13 14:42:03;;;;;;;3.40;1.90;;;;;;;;;;5046364;28;20292;-79
2023/05/13 14:44:30;;;;;;;2.10;1.93;;;;;;;;;;5020205;28;20258;-78
2023/05/13 14:46:58;;;;;;;5.07;2.47;;;;;;;;;;5047220;28;20242;-78